Metar z połowy godziny Komunikat METAR ze strony awiacja.imgw.pl Metar G30 EPMO METAR EPMO 241930Z 26003KT CAVOK 16/11 Q1011 =